Airfield :
LOGIN :

Register | Disclaimer

   EN    FR    IT 

 










Legend :    VFR   Marginal VFR   IFR   Intensive IFR   Very Intensive IFR
Visi :
Ceiling :
>= 8 km
>= 3000ft
5 to 8 km
1000 to 3000 ft
1500m to 5 km
500 to 1000 ft
800 to 1500m
200 to 500 ft
< 800m
< 200 ft
Symbols :   Thunderstorms  Fog  Heavy snow  Heavy precipitations  Wind > 20 kt
SIGMETs :     Misc.  Thunderstorms  Icing  Turbulence  Mountain Waves  Volcanic Ashes






- Airport Elevation : 1300 ft
- IATA code : LIG


LFBL - Limoges

CURRENT METAR :
  • 231830Z AUTO 26008KT 220V280 CAVOK 24/18 Q1011 TEMPO 27015G25KT 4000 SHRA SCT025 SCT080CB

EXPIRED METARs :
  • 231800Z AUTO 26007KT 230V300 CAVOK 24/17 Q1010 TEMPO 27015G25KT 4000 SHRA SCT025 SCT080CB
  • 231730Z AUTO 27008KT CAVOK 25/18 Q1010 TEMPO 27015G25KT 2000 TSRA SCT025 SCT080CB
  • 231700Z AUTO 27011KT CAVOK 26/20 Q1010 TEMPO 27015G25KT 4000 SHRA SCT025 SCT080CB
  • 231630Z AUTO 27011KT CAVOK 25/20 Q1010 TEMPO 27015G25KT 4000 SHRA SCT025 SCT080CB
  • 231600Z AUTO 27013KT 9999 FEW042 27/21 Q1010 NOSIG

TAF AMD TAF LFBL
Valid from the 23 at 18:00 until the 24 at 18:00 UTC


231810Z 2318/2418 29010KT CAVOK
TEMPO 2318/2322 4000 SHRA SCT025 SCT080CB
PROB40
TEMPO 2318/2322 27015G25KT TSRA
PROB30
TEMPO 2400/2404 BKN012
BECMG 2401/2403 23004KT
BECMG 2404/2406 BKN012
PROB30
TEMPO 2404/2407 BKN005
BECMG 2407/2409 BKN025
BECMG 2410/2412 27010KT BKN040
PROB40
TEMPO 2414/2416 4000 SHRA SCT025 SCT030TCU
ATIS : +33 5 55 48 40 37



MET'MAP, your aeronautical weather chart ! - Copyright ORBIFLY December 2007 - Disclaimer

ORBIFLY MET'MAP TEAM :

Programming & Development : Alexandra Zaïnal
Concept & original design : Baudouin d'Aumeries
Assistance for programming : Marc-Olivier Méhu
Technical & hardware support : Manuel Goepfert

Contact : metmap@orbifly.com




SOURCES & CREDITS :

   NOAA